createdAt,value
2022-12-11T00:00:49.760Z,-1.35
2022-12-11T00:03:17.853Z,-1.19
2022-12-11T00:05:45.605Z,-1.33
2022-12-11T00:08:13.304Z,-1.30
2022-12-11T00:10:40.141Z,-1.34
2022-12-11T00:13:07.016Z,-1.35
2022-12-11T00:15:34.005Z,-1.40
2022-12-11T00:18:01.007Z,-1.31
2022-12-11T00:20:27.764Z,-1.07
2022-12-11T00:22:54.553Z,-1.27
2022-12-11T00:25:21.280Z,-1.29
2022-12-11T00:27:48.061Z,-1.23
2022-12-11T00:30:17.382Z,-1.27
2022-12-11T00:32:44.419Z,-1.24
2022-12-11T00:35:11.546Z,-1.28
2022-12-11T00:37:38.461Z,-1.35
2022-12-11T00:40:05.753Z,-1.27
2022-12-11T00:42:32.531Z,-1.34
2022-12-11T00:44:59.421Z,-1.33
2022-12-11T00:47:26.240Z,-1.38
2022-12-11T00:49:52.929Z,-1.43
2022-12-11T00:52:19.696Z,-1.48
2022-12-11T00:54:46.417Z,-1.48
2022-12-11T00:57:13.192Z,-1.48
2022-12-11T00:59:40.005Z,-1.47
2022-12-11T01:02:06.833Z,-1.46
2022-12-11T01:04:36.348Z,-1.45
2022-12-11T01:07:03.511Z,-1.49
2022-12-11T01:09:48.928Z,-1.51
2022-12-11T01:12:15.734Z,-1.48
2022-12-11T01:14:52.519Z,-1.51
2022-12-11T01:17:19.677Z,-1.54
2022-12-11T01:19:46.382Z,-1.50
2022-12-11T01:22:13.140Z,-1.53
2022-12-11T01:24:39.875Z,-1.52
2022-12-11T01:27:06.717Z,-1.54
2022-12-11T01:29:33.460Z,-1.40
2022-12-11T01:32:00.161Z,-1.50
2022-12-11T01:34:30.038Z,-1.51
2022-12-11T01:36:56.752Z,-1.47
2022-12-11T01:39:23.629Z,-1.58
2022-12-11T01:41:50.412Z,-1.57
2022-12-11T01:44:17.080Z,-1.61
2022-12-11T01:46:43.920Z,-1.53
2022-12-11T01:49:14.282Z,-1.59
2022-12-11T01:52:06.336Z,-1.59
2022-12-11T01:54:33.342Z,-1.51
2022-12-11T01:57:04.728Z,-1.40
2022-12-11T01:59:36.087Z,-1.58
2022-12-11T02:02:24.111Z,-1.65
2022-12-11T02:04:50.899Z,-1.65
2022-12-11T02:07:17.677Z,-1.67
2022-12-11T02:09:46.823Z,-1.67
2022-12-11T02:12:22.387Z,-1.67
2022-12-11T02:14:51.821Z,-1.60
2022-12-11T02:17:33.646Z,-1.70
2022-12-11T02:20:18.596Z,-1.68
2022-12-11T02:22:55.360Z,-1.66
2022-12-11T02:25:51.865Z,-1.73
2022-12-11T02:28:40.554Z,-1.66
2022-12-11T02:31:20.779Z,-1.73
2022-12-11T02:34:05.846Z,-1.73
2022-12-11T02:36:38.184Z,-1.68
2022-12-11T02:39:07.775Z,-1.64
2022-12-11T02:41:35.264Z,-1.65
2022-12-11T02:44:03.509Z,-1.81
2022-12-11T02:46:31.521Z,-1.75
2022-12-11T02:48:58.545Z,-1.68
2022-12-11T02:51:34.557Z,-1.79
2022-12-11T02:54:03.690Z,-1.68
2022-12-11T02:56:45.515Z,-1.76
2022-12-11T02:59:19.189Z,-1.64
2022-12-11T03:01:47.127Z,-1.71
2022-12-11T03:04:14.099Z,-1.78
2022-12-11T03:06:46.858Z,-1.69
2022-12-11T03:09:13.633Z,-1.71
2022-12-11T03:11:46.622Z,-1.76
2022-12-11T03:14:14.393Z,-1.79
2022-12-11T03:16:56.922Z,-1.76
2022-12-11T03:19:40.221Z,-1.65
2022-12-11T03:22:17.280Z,-1.75
2022-12-11T03:24:44.019Z,-1.70
2022-12-11T03:27:26.863Z,-1.63
2022-12-11T03:30:00.830Z,-1.69
2022-12-11T03:32:36.256Z,-1.81
2022-12-11T03:35:37.676Z,-1.82
2022-12-11T03:38:11.113Z,-1.79
2022-12-11T03:40:41.645Z,-1.76
2022-12-11T03:43:11.142Z,-1.76
2022-12-11T03:45:40.309Z,-1.83
2022-12-11T03:48:10.151Z,-1.71
2022-12-11T03:50:37.622Z,-1.88
2022-12-11T03:53:05.377Z,-1.80
2022-12-11T03:55:33.593Z,-1.76
2022-12-11T03:58:00.438Z,-1.76
2022-12-11T04:00:28.224Z,-1.81
2022-12-11T04:03:14.256Z,-1.87
2022-12-11T04:05:50.890Z,-1.84
2022-12-11T04:08:20.896Z,-1.89
2022-12-11T04:10:47.997Z,-1.76
2022-12-11T04:13:15.050Z,-1.84
2022-12-11T04:15:42.089Z,-1.93
2022-12-11T04:18:28.863Z,-1.83
2022-12-11T04:21:14.933Z,-1.92
2022-12-11T04:24:00.272Z,-1.82
2022-12-11T04:26:27.423Z,-1.82
2022-12-11T04:28:54.515Z,-1.99
2022-12-11T04:31:22.916Z,-1.91
2022-12-11T04:33:50.916Z,-1.84
2022-12-11T04:36:18.115Z,-1.96
2022-12-11T04:38:44.877Z,-1.98
2022-12-11T04:41:13.789Z,-1.97
2022-12-11T04:43:40.883Z,-2.01
2022-12-11T04:46:11.177Z,-1.98
2022-12-11T04:48:39.131Z,-1.99
2022-12-11T04:51:07.160Z,-1.98
2022-12-11T04:53:34.461Z,-1.87
2022-12-11T04:56:01.667Z,-1.87
2022-12-11T04:58:28.551Z,-1.93
2022-12-11T05:00:55.318Z,-1.97
2022-12-11T05:03:22.175Z,-1.99
2022-12-11T05:05:50.769Z,-2.01
2022-12-11T05:08:21.937Z,-2.06
2022-12-11T05:11:00.047Z,-2.05
2022-12-11T05:13:28.780Z,-2.08
2022-12-11T05:15:56.478Z,-2.04
2022-12-11T05:18:24.077Z,-2.02
2022-12-11T05:21:06.501Z,-2.06
2022-12-11T05:23:34.811Z,-2.10
2022-12-11T05:26:05.542Z,-2.11
2022-12-11T05:28:34.908Z,-2.08
2022-12-11T05:31:04.480Z,-2.08
2022-12-11T05:33:31.709Z,-2.13
2022-12-11T05:35:58.751Z,-2.15
2022-12-11T05:38:25.748Z,-2.11
2022-12-11T05:41:04.467Z,-2.14
2022-12-11T05:43:34.408Z,-2.19
2022-12-11T05:46:07.791Z,-2.15
2022-12-11T05:48:35.181Z,-2.06
2022-12-11T05:51:03.431Z,-2.11
2022-12-11T05:53:30.415Z,-2.06
2022-12-11T05:56:06.127Z,-2.10
2022-12-11T05:58:34.146Z,-1.99
2022-12-11T06:01:01.501Z,-2.16
2022-12-11T06:03:28.373Z,-2.10
2022-12-11T06:05:55.085Z,-2.13
2022-12-11T06:08:21.828Z,-2.20
2022-12-11T06:10:50.218Z,-2.08
2022-12-11T06:13:17.581Z,-1.99
2022-12-11T06:15:44.427Z,-2.09
2022-12-11T06:18:11.232Z,-2.03
2022-12-11T06:20:38.260Z,-1.99
2022-12-11T06:23:05.510Z,-2.02
2022-12-11T06:25:32.457Z,-1.98
2022-12-11T06:27:59.584Z,-2.03
2022-12-11T06:30:37.677Z,-1.90
2022-12-11T06:33:06.988Z,-2.06
2022-12-11T06:35:38.742Z,-2.12
2022-12-11T06:38:08.310Z,-1.99
2022-12-11T06:40:35.036Z,-2.06
2022-12-11T06:43:01.858Z,-2.21
2022-12-11T06:45:28.647Z,-2.08
2022-12-11T06:48:04.976Z,-2.13
2022-12-11T06:50:31.731Z,-2.14
2022-12-11T06:52:58.450Z,-2.12
2022-12-11T06:55:25.220Z,-2.10
2022-12-11T06:57:51.978Z,-2.06
2022-12-11T07:00:18.786Z,-2.08
2022-12-11T07:02:45.506Z,-2.03
2022-12-11T07:05:12.765Z,-1.94
2022-12-11T07:07:39.767Z,-1.96
2022-12-11T07:10:08.632Z,-2.01
2022-12-11T07:12:36.069Z,-2.06
2022-12-11T07:15:03.786Z,-2.09
2022-12-11T07:17:31.474Z,-2.06
2022-12-11T07:19:58.231Z,-2.15
2022-12-11T07:22:24.993Z,-2.10
2022-12-11T07:24:51.871Z,-2.13
2022-12-11T07:27:18.568Z,-2.10
2022-12-11T07:29:45.331Z,-2.06
2022-12-11T07:32:12.303Z,-2.06
2022-12-11T07:34:39.338Z,-2.10
2022-12-11T07:37:06.234Z,-2.12
2022-12-11T07:39:33.019Z,-2.28
2022-12-11T07:41:59.979Z,-2.15
2022-12-11T07:44:26.724Z,-2.06
2022-12-11T07:46:53.462Z,-2.20
2022-12-11T07:49:20.267Z,-2.07
2022-12-11T07:51:46.950Z,-2.12
2022-12-11T07:54:17.080Z,-2.05
2022-12-11T07:56:46.513Z,-2.21
2022-12-11T07:59:17.021Z,-2.16
2022-12-11T08:01:44.150Z,-2.06
2022-12-11T08:04:12.193Z,-2.04
2022-12-11T08:06:40.346Z,-2.19
2022-12-11T08:09:09.556Z,-2.05
2022-12-11T08:11:37.204Z,-2.19
2022-12-11T08:14:06.017Z,-2.10
2022-12-11T08:16:33.068Z,-2.14
2022-12-11T08:19:00.053Z,-2.03
2022-12-11T08:21:28.483Z,-2.05
2022-12-11T08:23:56.027Z,-2.03
2022-12-11T08:26:26.619Z,-1.84
2022-12-11T08:28:53.589Z,-2.03
2022-12-11T08:31:20.665Z,-2.04
2022-12-11T08:33:48.619Z,-2.02
2022-12-11T08:36:18.877Z,-2.12
2022-12-11T08:38:46.764Z,-1.95
2022-12-11T08:41:25.369Z,-2.08
2022-12-11T08:43:55.360Z,-1.98
2022-12-11T08:46:24.784Z,-1.85
2022-12-11T08:48:52.439Z,-1.92
2022-12-11T08:51:22.848Z,-1.98
2022-12-11T08:53:50.505Z,-1.83
2022-12-11T08:56:20.126Z,-1.90
2022-12-11T08:58:47.849Z,-1.86
2022-12-11T09:01:26.269Z,-1.74
2022-12-11T09:03:55.122Z,-1.81
2022-12-11T09:06:23.925Z,-1.84
2022-12-11T09:08:53.190Z,-1.91
2022-12-11T09:11:26.099Z,-1.86
2022-12-11T09:13:53.697Z,-1.82
2022-12-11T09:16:23.531Z,-1.94
2022-12-11T09:18:52.082Z,-1.89
2022-12-11T09:21:21.584Z,-1.79
2022-12-11T09:23:48.893Z,-1.99
2022-12-11T09:26:18.379Z,-1.98
2022-12-11T09:28:46.997Z,-1.97
2022-12-11T09:31:16.116Z,-1.82
2022-12-11T09:33:43.137Z,-1.72
2022-12-11T09:36:10.488Z,-1.85
2022-12-11T09:38:37.295Z,-1.85
2022-12-11T09:41:33.656Z,-1.91
2022-12-11T09:44:11.706Z,-1.73
2022-12-11T09:46:40.939Z,-1.90
2022-12-11T09:49:22.278Z,-1.87
2022-12-11T09:52:21.438Z,-1.91
2022-12-11T09:54:56.102Z,-1.75
2022-12-11T09:57:40.782Z,-1.76
2022-12-11T10:00:42.043Z,-1.86
2022-12-11T10:03:15.753Z,-1.80
2022-12-11T10:06:06.030Z,-1.79
2022-12-11T10:08:50.959Z,-1.89
2022-12-11T10:17:28.594Z,-1.96
2022-12-11T10:20:18.778Z,-1.90
2022-12-11T10:22:46.137Z,-1.92
2022-12-11T10:25:44.981Z,-2.01
2022-12-11T10:28:17.473Z,-2.00
2022-12-11T10:31:13.697Z,-1.91
2022-12-11T10:33:40.445Z,-1.92
2022-12-11T10:36:09.345Z,-2.09
2022-12-11T10:38:42.689Z,-1.93
2022-12-11T10:41:24.716Z,-2.05
2022-12-11T10:43:53.520Z,-1.93
2022-12-11T10:46:23.124Z,-1.89
2022-12-11T10:51:37.612Z,-1.85
2022-12-11T10:54:08.852Z,-1.89
2022-12-11T10:56:37.981Z,-1.98
2022-12-11T10:59:05.107Z,-1.89
2022-12-11T11:01:33.017Z,-1.89
2022-12-11T11:04:20.629Z,-1.97
2022-12-11T11:06:47.433Z,-2.07
2022-12-11T11:09:36.753Z,-1.96
2022-12-11T11:12:07.874Z,-2.09
2022-12-11T11:14:35.079Z,-2.14
2022-12-11T11:17:02.123Z,-2.10
2022-12-11T11:19:33.177Z,-2.21
2022-12-11T11:22:07.353Z,-2.17
2022-12-11T11:24:36.368Z,-2.11
2022-12-11T11:27:18.787Z,-2.04
2022-12-11T11:29:48.988Z,-1.99
2022-12-11T11:32:27.918Z,-2.12
2022-12-11T11:35:06.580Z,-2.15
2022-12-11T11:37:34.767Z,-2.04
2022-12-11T11:40:22.354Z,-1.97
2022-12-11T11:43:05.490Z,-2.02
2022-12-11T11:45:39.749Z,-2.16
2022-12-11T11:48:27.674Z,-2.24
2022-12-11T11:50:54.980Z,-2.18
2022-12-11T11:53:31.687Z,-2.18
2022-12-11T11:56:37.727Z,-2.27
2022-12-11T11:59:22.178Z,-2.23
2022-12-11T12:01:57.313Z,-2.28
2022-12-11T12:04:26.162Z,-2.22
2022-12-11T12:07:05.051Z,-2.21
2022-12-11T12:09:31.650Z,-2.26
2022-12-11T12:12:33.793Z,-2.24
2022-12-11T12:15:18.350Z,-2.33
2022-12-11T12:17:56.407Z,-2.28
2022-12-11T12:20:30.034Z,-2.28
2022-12-11T12:23:16.247Z,-2.29
2022-12-11T12:25:49.540Z,-2.33
2022-12-11T12:28:30.921Z,-2.38
2022-12-11T12:31:17.561Z,-2.30
2022-12-11T12:33:50.673Z,-2.30
2022-12-11T12:36:21.477Z,-2.40
2022-12-11T12:39:02.728Z,-2.37
2022-12-11T12:41:51.316Z,-2.30
2022-12-11T12:44:22.925Z,-2.44
2022-12-11T12:46:56.081Z,-2.42
2022-12-11T12:49:46.899Z,-2.32
2022-12-11T12:52:19.909Z,-2.25
2022-12-11T12:55:10.440Z,-2.15
2022-12-11T12:57:39.820Z,-2.16
2022-12-11T13:00:13.041Z,-2.30
2022-12-11T13:02:51.454Z,-2.36
2022-12-11T13:05:33.598Z,-2.30
2022-12-11T13:08:03.769Z,-2.35
2022-12-11T13:10:36.938Z,-2.34
2022-12-11T13:13:06.227Z,-2.24
2022-12-11T13:15:35.461Z,-2.39
2022-12-11T13:18:27.545Z,-2.40
2022-12-11T13:20:54.709Z,-2.44
2022-12-11T13:23:32.033Z,-2.37
2022-12-11T13:26:02.259Z,-2.33
2022-12-11T13:28:48.395Z,-2.41
2022-12-11T13:31:15.396Z,-2.56
2022-12-11T13:34:14.672Z,-2.44
2022-12-11T13:36:46.674Z,-2.44
2022-12-11T13:39:26.274Z,-2.36
2022-12-11T13:42:17.526Z,-2.40
2022-12-11T13:44:48.675Z,-2.37
2022-12-11T13:47:18.824Z,-2.37
2022-12-11T13:49:50.385Z,-2.27
2022-12-11T13:52:29.238Z,-2.30
2022-12-11T13:54:59.581Z,-2.31
2022-12-11T13:57:31.315Z,-2.39
2022-12-11T13:59:59.805Z,-2.28
2022-12-11T14:02:34.974Z,-2.30
2022-12-11T14:05:13.017Z,-2.44
2022-12-11T14:07:55.775Z,-2.29
2022-12-11T14:10:33.237Z,-2.45
2022-12-11T14:13:14.089Z,-2.56
2022-12-11T14:15:45.525Z,-2.52
2022-12-11T14:18:33.010Z,-2.44
2022-12-11T14:21:05.606Z,-2.51
2022-12-11T14:23:34.300Z,-2.38
2022-12-11T14:26:05.156Z,-2.44
2022-12-11T14:28:41.622Z,-2.33
2022-12-11T14:31:08.532Z,-2.41
2022-12-11T14:33:48.737Z,-2.30
2022-12-11T14:36:17.675Z,-2.29
2022-12-11T14:38:46.533Z,-2.50
2022-12-11T14:41:36.680Z,-2.42
2022-12-11T14:44:07.647Z,-2.43
2022-12-11T14:46:44.029Z,-2.45
2022-12-11T14:49:43.069Z,-2.33
2022-12-11T14:52:18.315Z,-2.37
2022-12-11T14:54:51.416Z,-2.56
2022-12-11T14:57:25.757Z,-2.54
2022-12-11T14:59:54.988Z,-2.55
2022-12-11T15:05:00.357Z,-2.49
2022-12-11T15:06:23.981Z,-2.56
2022-12-11T15:08:50.760Z,-2.55
2022-12-11T15:11:18.634Z,-2.51
2022-12-11T15:13:54.631Z,-2.56
2022-12-11T15:16:23.751Z,-2.56
2022-12-11T15:18:52.671Z,-2.56
2022-12-11T15:24:05.431Z,-2.51
2022-12-11T15:26:38.387Z,-2.39
2022-12-11T15:29:22.870Z,-2.52
2022-12-11T15:32:04.634Z,-2.52
2022-12-11T15:34:58.792Z,-2.57
2022-12-11T15:37:27.050Z,-2.49
2022-12-11T15:39:55.424Z,-2.52
2022-12-11T15:42:29.180Z,-2.65
2022-12-11T15:44:56.695Z,-2.49
2022-12-11T15:47:28.866Z,-2.49
2022-12-11T15:49:59.742Z,-2.44
2022-12-11T15:52:26.517Z,-2.50
2022-12-11T15:54:53.454Z,-2.57
2022-12-11T15:57:22.970Z,-2.46
2022-12-11T15:59:51.662Z,-2.55
2022-12-11T16:02:18.928Z,-2.48
2022-12-11T16:04:45.803Z,-2.52
2022-12-11T16:07:18.732Z,-2.54
2022-12-11T16:09:46.257Z,-2.58
2022-12-11T16:12:14.870Z,-2.48
2022-12-11T16:14:42.804Z,-2.58
2022-12-11T16:17:10.696Z,-2.57
2022-12-11T16:19:37.759Z,-2.55
2022-12-11T16:22:05.595Z,-2.43
2022-12-11T16:24:33.307Z,-2.56
2022-12-11T16:27:00.134Z,-2.48
2022-12-11T16:29:27.173Z,-2.40
2022-12-11T16:31:54.046Z,-2.40
2022-12-11T16:34:28.307Z,-2.41
2022-12-11T16:36:58.103Z,-2.30
2022-12-11T16:39:25.070Z,-2.31
2022-12-11T16:41:51.836Z,-2.27
2022-12-11T16:44:24.239Z,-2.27
2022-12-11T16:46:51.784Z,-2.24
2022-12-11T16:49:19.011Z,-2.26
2022-12-11T16:51:47.137Z,-2.20
2022-12-11T16:54:13.879Z,-2.17
2022-12-11T16:56:40.816Z,-2.22
2022-12-11T16:59:08.004Z,-2.27
2022-12-11T17:01:34.886Z,-2.19
2022-12-11T17:04:01.822Z,-2.18
2022-12-11T17:06:29.458Z,-2.15
2022-12-11T17:08:56.294Z,-2.14
2022-12-11T17:11:25.014Z,-2.07
2022-12-11T17:13:56.034Z,-2.12
2022-12-11T17:16:26.115Z,-2.00
2022-12-11T17:18:53.603Z,-2.02
2022-12-11T17:21:37.135Z,-1.90
2022-12-11T17:24:03.990Z,-2.01
2022-12-11T17:26:34.757Z,-1.97
2022-12-11T17:29:01.884Z,-1.97
2022-12-11T17:31:29.206Z,-1.97
2022-12-11T17:33:58.026Z,-1.91
2022-12-11T17:36:24.886Z,-1.90
2022-12-11T17:38:51.653Z,-1.92
2022-12-11T17:41:21.109Z,-1.95
2022-12-11T17:43:49.368Z,-1.96
2022-12-11T17:46:16.213Z,-1.94
2022-12-11T17:48:43.273Z,-1.96
2022-12-11T17:51:13.148Z,-1.85
2022-12-11T17:53:40.401Z,-1.82
2022-12-11T17:56:08.912Z,-1.88
2022-12-11T17:58:35.713Z,-1.81
2022-12-11T18:01:08.903Z,-1.79
2022-12-11T18:03:42.995Z,-1.78
2022-12-11T18:06:13.425Z,-1.63
2022-12-11T18:08:41.656Z,-1.59
2022-12-11T18:11:17.485Z,-1.59
2022-12-11T18:13:45.665Z,-1.54
2022-12-11T18:16:14.450Z,-1.52
2022-12-11T18:18:45.942Z,-1.47
2022-12-11T18:21:18.397Z,-1.47
2022-12-11T18:23:45.478Z,-1.42
2022-12-11T18:26:14.704Z,-1.39
2022-12-11T18:28:42.495Z,-1.42
2022-12-11T18:31:09.930Z,-1.34
2022-12-11T18:33:38.697Z,-1.39
2022-12-11T18:36:06.484Z,-1.37
2022-12-11T18:38:33.747Z,-1.29
2022-12-11T18:41:07.857Z,-1.36
2022-12-11T18:43:35.518Z,-1.30
2022-12-11T18:46:09.742Z,-1.30
2022-12-11T18:48:36.938Z,-1.28
2022-12-11T18:51:08.612Z,-1.24
2022-12-11T18:53:36.863Z,-1.20
2022-12-11T18:56:13.265Z,-1.20
2022-12-11T18:58:40.310Z,-1.10
2022-12-11T19:01:08.298Z,-1.14
2022-12-11T19:03:35.497Z,-1.12
2022-12-11T19:06:14.395Z,-1.07
2022-12-11T19:08:41.543Z,-1.06
2022-12-11T19:11:08.642Z,-1.01
2022-12-11T19:13:36.073Z,-1.02
2022-12-11T19:16:03.080Z,-1.03
2022-12-11T19:18:30.064Z,-1.00
2022-12-11T19:21:06.695Z,-1.01
2022-12-11T19:23:35.597Z,-0.99
2022-12-11T19:26:02.567Z,-0.93
2022-12-11T19:28:29.719Z,-0.98
2022-12-11T19:30:56.609Z,-0.94
2022-12-11T19:33:23.370Z,-0.89
2022-12-11T19:35:50.168Z,-0.97
2022-12-11T19:38:16.878Z,-0.92
2022-12-11T19:40:44.972Z,-0.91
2022-12-11T19:43:11.757Z,-0.88
2022-12-11T19:45:39.073Z,-0.93
2022-12-11T19:48:06.090Z,-0.89
2022-12-11T19:50:35.549Z,-0.88
2022-12-11T19:53:02.327Z,-0.91
2022-12-11T19:55:29.089Z,-0.91
2022-12-11T19:57:56.046Z,-0.87
2022-12-11T20:00:23.281Z,-0.83
2022-12-11T20:02:50.145Z,-0.76
2022-12-11T20:05:17.429Z,-0.79
2022-12-11T20:07:47.039Z,-0.84
2022-12-11T20:10:13.893Z,-0.82
2022-12-11T20:12:40.806Z,-0.82
2022-12-11T20:15:08.027Z,-0.81
2022-12-11T20:17:36.824Z,-0.80
2022-12-11T20:20:04.053Z,-0.72
2022-12-11T20:22:30.801Z,-0.82
2022-12-11T20:24:57.600Z,-0.77
2022-12-11T20:27:26.233Z,-0.75
2022-12-11T20:29:52.995Z,-0.66
2022-12-11T20:32:19.768Z,-0.72
2022-12-11T20:34:46.561Z,-0.67
2022-12-11T20:37:13.365Z,-0.72
2022-12-11T20:39:40.212Z,-0.69
2022-12-11T20:42:09.276Z,-0.74
2022-12-11T20:44:35.985Z,-0.73
2022-12-11T20:47:03.046Z,-0.73
2022-12-11T20:49:29.870Z,-0.71
2022-12-11T20:51:56.931Z,-0.71
2022-12-11T20:54:23.632Z,-0.71
2022-12-11T20:56:50.462Z,-0.66
2022-12-11T20:59:17.481Z,-0.66
2022-12-11T21:01:44.505Z,-0.68
2022-12-11T21:04:12.015Z,-0.71
2022-12-11T21:06:40.770Z,-0.63
2022-12-11T21:09:17.810Z,-0.70
2022-12-11T21:11:44.724Z,-0.71
2022-12-11T21:14:11.571Z,-0.67
2022-12-11T21:16:38.449Z,-0.64
2022-12-11T21:19:05.870Z,-0.65
2022-12-11T21:21:34.110Z,-0.64
2022-12-11T21:24:00.860Z,-0.61
2022-12-11T21:26:27.819Z,-0.67
2022-12-11T21:28:55.022Z,-0.65
2022-12-11T21:31:22.315Z,-0.61
2022-12-11T21:33:49.176Z,-0.63
2022-12-11T21:36:28.497Z,-0.63
2022-12-11T21:38:55.252Z,-0.63
2022-12-11T21:41:24.904Z,-0.61
2022-12-11T21:44:56.588Z,-0.50
2022-12-11T21:46:40.529Z,-0.55
2022-12-11T21:49:08.629Z,-0.57
2022-12-11T21:51:40.418Z,-0.53
2022-12-11T21:54:14.524Z,-0.59
2022-12-11T21:56:42.215Z,-0.62
2022-12-11T21:59:09.339Z,-0.52
2022-12-11T22:01:42.055Z,-0.53
2022-12-11T22:04:11.055Z,-0.53
2022-12-11T22:06:38.195Z,-0.45
2022-12-11T22:09:05.373Z,-0.49
2022-12-11T22:11:34.218Z,-0.54
2022-12-11T22:14:01.867Z,-0.46
2022-12-11T22:16:30.211Z,-0.55
2022-12-11T22:18:57.075Z,-0.55
2022-12-11T22:21:23.862Z,-0.58
2022-12-11T22:23:50.683Z,-0.50
2022-12-11T22:26:22.416Z,-0.55
2022-12-11T22:28:50.456Z,-0.40
2022-12-11T22:31:20.673Z,-0.50
2022-12-11T22:33:52.846Z,-0.46
2022-12-11T22:36:20.592Z,-0.52
2022-12-11T22:38:47.738Z,-0.48
2022-12-11T22:41:25.295Z,-0.42
2022-12-11T22:43:52.639Z,-0.42
2022-12-11T22:46:21.919Z,-0.43
2022-12-11T22:48:48.948Z,-0.38
2022-12-11T22:51:16.267Z,-0.37
2022-12-11T22:53:43.117Z,-0.47
2022-12-11T22:56:12.452Z,-0.43
2022-12-11T22:58:39.874Z,-0.41
2022-12-11T23:01:16.765Z,-0.39
2022-12-11T23:03:43.667Z,-0.36
2022-12-11T23:06:13.297Z,-0.33
2022-12-11T23:08:41.074Z,-0.38
2022-12-11T23:11:16.386Z,-0.31
2022-12-11T23:13:43.517Z,-0.39
2022-12-11T23:16:11.490Z,-0.31
2022-12-11T23:18:39.568Z,-0.29
2022-12-11T23:21:26.275Z,-0.27
2022-12-11T23:23:53.305Z,-0.32
2022-12-11T23:26:21.528Z,-0.24
2022-12-11T23:28:48.408Z,-0.27
2022-12-11T23:31:16.442Z,-0.23
2022-12-11T23:33:43.270Z,-0.21
2022-12-11T23:36:10.491Z,-0.28
2022-12-11T23:38:37.783Z,-0.16
2022-12-11T23:41:06.089Z,-0.11
2022-12-11T23:43:35.265Z,-0.16
2022-12-11T23:46:08.125Z,-0.16
2022-12-11T23:48:35.015Z,-0.22
2022-12-11T23:51:03.945Z,-0.15
2022-12-11T23:53:30.698Z,-0.23
2022-12-11T23:56:04.503Z,-0.11
2022-12-11T23:58:31.416Z,-0.15
